Terminal Aerodrome Forecast
Issued by NWS Wichita, KS

Home | Current Version | Previous Version | Graphics & Text | Print | Product List | Glossary On
Versions: 1 2 3 4 5 6 7 8 9 10 11 12 13
000
FTUS43 KICT 241120
TAFICT
TAF
KICT 241120Z 2412/2512 33020G28KT P6SM OVC015
     FM242200 33020G28KT P6SM BKN035
     FM250200 33015KT P6SM SCT035=

USA.gov is the U.S. government's official web portal to all federal, state and local government web resources and services.